createdAt,value
2023-04-16T00:00:43.666Z,34.88
2023-04-16T00:03:45.395Z,32.05
2023-04-16T00:06:47.138Z,36.60
2023-04-16T00:09:48.683Z,33.50
2023-04-16T00:12:50.246Z,31.02
2023-04-16T00:15:51.826Z,37.38
2023-04-16T00:18:53.403Z,37.40
2023-04-16T00:21:54.966Z,33.35
2023-04-16T00:24:56.761Z,35.85
2023-04-16T00:27:58.350Z,35.60
2023-04-16T00:31:01.498Z,37.60
2023-04-16T00:34:03.517Z,36.53
2023-04-16T00:37:05.302Z,36.10
2023-04-16T00:40:07.813Z,38.22
2023-04-16T00:43:09.448Z,36.58
2023-04-16T00:46:12.216Z,37.72
2023-04-16T00:49:14.574Z,32.25
2023-04-16T00:52:16.150Z,31.45
2023-04-16T00:55:18.874Z,33.78
2023-04-16T00:58:21.330Z,31.23
2023-04-16T01:01:23.210Z,32.92
2023-04-16T01:04:24.989Z,32.28
2023-04-16T01:07:26.696Z,33.10
2023-04-16T01:10:28.423Z,34.17
2023-04-16T01:13:30.514Z,32.72
2023-04-16T01:16:32.742Z,34.05
2023-04-16T01:19:38.641Z,34.10
2023-04-16T01:22:42.033Z,35.53
2023-04-16T01:25:44.015Z,42.40
2023-04-16T01:28:46.335Z,40.92
2023-04-16T01:31:48.187Z,39.47
2023-04-16T01:34:49.839Z,36.58
2023-04-16T01:37:51.475Z,37.28
2023-04-16T01:40:59.957Z,36.72
2023-04-16T01:44:01.567Z,35.85
2023-04-16T01:47:04.046Z,35.10
2023-04-16T01:50:06.542Z,40.28
2023-04-16T01:53:09.529Z,37.80
2023-04-16T01:56:11.204Z,42.00
2023-04-16T01:59:12.746Z,43.25
2023-04-16T02:02:16.113Z,40.85
2023-04-16T02:05:17.913Z,43.25
2023-04-16T02:08:19.568Z,42.08
2023-04-16T02:11:21.435Z,37.92
2023-04-16T02:14:25.463Z,44.55
2023-04-16T02:17:27.340Z,49.78
2023-04-16T02:20:29.030Z,39.72
2023-04-16T02:23:30.655Z,36.72
2023-04-16T02:26:32.352Z,45.20
2023-04-16T02:29:34.142Z,44.38
2023-04-16T02:32:35.851Z,49.47
2023-04-16T02:35:38.814Z,49.22
2023-04-16T02:38:42.960Z,51.72
2023-04-16T02:41:44.586Z,51.42
2023-04-16T02:44:46.190Z,51.17
2023-04-16T02:47:48.749Z,47.05
2023-04-16T02:50:50.518Z,53.70
2023-04-16T02:53:52.043Z,46.58
2023-04-16T02:56:53.594Z,46.08
2023-04-16T02:59:55.409Z,50.58
2023-04-16T03:02:57.083Z,48.30
2023-04-16T03:05:58.816Z,48.85
2023-04-16T03:09:00.474Z,55.30
2023-04-16T03:12:02.395Z,50.45
2023-04-16T03:15:04.640Z,53.53
2023-04-16T03:18:06.264Z,50.45
2023-04-16T03:21:07.852Z,52.83
2023-04-16T03:24:09.410Z,56.97
2023-04-16T03:27:11.009Z,52.83
2023-04-16T03:30:13.461Z,52.42
2023-04-16T03:33:15.365Z,53.70
2023-04-16T03:36:16.919Z,55.60
2023-04-16T03:39:18.473Z,54.05
2023-04-16T03:42:20.010Z,60.90
2023-04-16T03:45:21.562Z,58.20
2023-04-16T03:48:23.197Z,51.65
2023-04-16T03:51:25.033Z,51.17
2023-04-16T03:54:26.801Z,61.58
2023-04-16T03:57:28.495Z,52.95
2023-04-16T04:00:30.588Z,56.47
2023-04-16T04:03:32.351Z,61.03
2023-04-16T04:06:34.239Z,63.85
2023-04-16T04:09:36.309Z,67.78
2023-04-16T04:12:38.194Z,66.78
2023-04-16T04:15:39.893Z,66.53
2023-04-16T04:18:43.305Z,63.20
2023-04-16T04:21:45.985Z,66.40
2023-04-16T04:24:47.571Z,70.88
2023-04-16T04:27:49.363Z,63.28
2023-04-16T04:30:51.121Z,65.65
2023-04-16T04:33:52.735Z,67.63
2023-04-16T04:36:54.324Z,76.68
2023-04-16T04:39:56.145Z,68.10
2023-04-16T04:42:57.769Z,70.55
2023-04-16T04:45:59.427Z,77.10
2023-04-16T04:49:01.034Z,82.43
2023-04-16T04:52:02.636Z,77.20
2023-04-16T04:55:04.545Z,75.63
2023-04-16T04:58:07.013Z,68.85
2023-04-16T05:01:08.725Z,68.25
2023-04-16T05:04:10.393Z,67.80
2023-04-16T05:07:12.125Z,78.43
2023-04-16T05:10:14.656Z,69.90
2023-04-16T05:13:16.238Z,71.95
2023-04-16T05:16:17.865Z,67.28
2023-04-16T05:19:19.451Z,71.30
2023-04-16T05:22:21.299Z,70.75
2023-04-16T05:25:22.949Z,67.50
2023-04-16T05:28:24.539Z,73.18
2023-04-16T05:31:26.300Z,60.55
2023-04-16T05:34:27.929Z,65.70
2023-04-16T05:37:29.545Z,67.35
2023-04-16T05:40:31.968Z,64.97
2023-04-16T05:43:33.643Z,69.43
2023-04-16T05:46:35.286Z,69.97
2023-04-16T05:49:37.336Z,65.00
2023-04-16T05:52:38.956Z,67.63
2023-04-16T05:55:40.620Z,71.40
2023-04-16T05:58:42.184Z,63.22
2023-04-16T06:01:43.800Z,65.32
2023-04-16T06:04:45.547Z,64.68
2023-04-16T06:07:47.406Z,62.90
2023-04-16T06:10:49.279Z,71.95
2023-04-16T06:13:50.838Z,69.25
2023-04-16T06:16:52.420Z,78.68
2023-04-16T06:19:54.009Z,72.28
2023-04-16T06:22:56.255Z,65.55
2023-04-16T06:25:58.314Z,69.07
2023-04-16T06:28:59.892Z,68.53
2023-04-16T06:32:02.117Z,67.70
2023-04-16T06:35:04.145Z,66.75
2023-04-16T06:38:05.697Z,73.28
2023-04-16T06:41:07.296Z,64.68
2023-04-16T06:44:08.829Z,60.60
2023-04-16T06:47:10.419Z,72.40
2023-04-16T06:50:12.053Z,63.65
2023-04-16T06:53:14.205Z,66.80
2023-04-16T06:56:15.938Z,65.70
2023-04-16T06:59:17.772Z,65.88
2023-04-16T07:02:19.709Z,65.28
2023-04-16T07:05:21.391Z,59.03
2023-04-16T07:08:22.954Z,60.88
2023-04-16T07:11:25.743Z,66.40
2023-04-16T07:14:27.443Z,73.97
2023-04-16T07:17:28.979Z,65.32
2023-04-16T07:20:30.844Z,66.90
2023-04-16T07:23:32.391Z,67.22
2023-04-16T07:26:33.923Z,65.50
2023-04-16T07:29:35.456Z,65.82
2023-04-16T07:32:37.223Z,68.13
2023-04-16T07:35:38.956Z,70.65
2023-04-16T07:38:40.517Z,67.15
2023-04-16T07:41:42.997Z,70.40
2023-04-16T07:44:44.579Z,65.45
2023-04-16T07:47:46.229Z,64.03
2023-04-16T07:50:47.905Z,58.35
2023-04-16T07:53:49.467Z,65.68
2023-04-16T07:56:51.068Z,71.00
2023-04-16T07:59:52.591Z,65.00
2023-04-16T08:02:54.390Z,62.92
2023-04-16T08:05:56.224Z,66.63
2023-04-16T08:08:57.806Z,57.97
2023-04-16T08:12:00.912Z,61.25
2023-04-16T08:15:02.469Z,63.38
2023-04-16T08:18:05.871Z,65.82
2023-04-16T08:21:08.297Z,63.63
2023-04-16T08:24:10.069Z,66.45
2023-04-16T08:27:18.614Z,59.45
2023-04-16T08:30:22.215Z,59.70
2023-04-16T08:33:23.824Z,60.58
2023-04-16T08:36:25.584Z,62.05
2023-04-16T08:39:27.257Z,50.90
2023-04-16T08:42:36.873Z,57.83
2023-04-16T08:45:38.495Z,53.35
2023-04-16T08:48:43.418Z,51.42
2023-04-16T08:51:52.008Z,49.80
2023-04-16T08:55:05.568Z,52.00
2023-04-16T08:58:21.908Z,49.42
2023-04-16T09:01:26.664Z,48.30
2023-04-16T09:04:28.868Z,50.00
2023-04-16T09:07:32.172Z,50.08
2023-04-16T09:10:34.048Z,53.60
2023-04-16T09:13:37.787Z,55.83
2023-04-16T09:16:40.834Z,51.08
2023-04-16T09:19:42.532Z,50.63
2023-04-16T09:22:44.785Z,51.42
2023-04-16T09:25:46.375Z,54.17
2023-04-16T09:28:49.361Z,51.13
2023-04-16T09:32:05.580Z,56.55
2023-04-16T09:35:07.416Z,55.40
2023-04-16T09:38:10.139Z,52.05
2023-04-16T09:41:11.727Z,59.50
2023-04-16T09:44:13.259Z,51.10
2023-04-16T09:47:15.203Z,47.53
2023-04-16T09:50:18.947Z,49.97
2023-04-16T09:53:29.160Z,50.60
2023-04-16T09:56:31.150Z,49.35
2023-04-16T09:59:35.719Z,53.70
2023-04-16T10:02:41.749Z,49.28
2023-04-16T10:05:43.773Z,49.03
2023-04-16T10:08:50.494Z,48.90
2023-04-16T10:11:52.258Z,50.95
2023-04-16T10:14:53.873Z,50.28
2023-04-16T10:17:56.925Z,49.97
2023-04-16T10:20:59.240Z,49.88
2023-04-16T10:24:01.123Z,48.22
2023-04-16T10:27:02.891Z,52.15
2023-04-16T10:30:05.978Z,43.63
2023-04-16T10:33:07.936Z,42.60
2023-04-16T10:36:13.214Z,46.65
2023-04-16T10:39:21.752Z,42.63
2023-04-16T10:42:23.382Z,44.95
2023-04-16T10:45:37.919Z,44.22
2023-04-16T10:48:49.218Z,45.38
2023-04-16T10:51:59.754Z,42.33
2023-04-16T10:55:01.644Z,46.40
2023-04-16T10:58:23.149Z,36.80
2023-04-16T11:01:33.830Z,41.75
2023-04-16T11:04:37.523Z,39.05
2023-04-16T11:07:49.596Z,37.88
2023-04-16T11:10:52.236Z,37.63
2023-04-16T11:13:56.251Z,39.85
2023-04-16T11:16:57.819Z,38.67
2023-04-16T11:19:59.475Z,34.03
2023-04-16T11:23:01.252Z,39.97
2023-04-16T11:26:02.816Z,41.35
2023-04-16T11:29:14.710Z,35.95
2023-04-16T11:32:22.763Z,38.10
2023-04-16T11:35:24.485Z,35.83
2023-04-16T11:38:36.733Z,35.95
2023-04-16T11:41:52.231Z,33.45
2023-04-16T11:44:58.173Z,38.83
2023-04-16T11:47:59.756Z,32.38
2023-04-16T11:51:01.354Z,34.40
2023-04-16T11:54:02.988Z,30.85
2023-04-16T11:57:04.902Z,31.02
2023-04-16T12:00:10.716Z,29.67
2023-04-16T12:03:12.598Z,32.40
2023-04-16T12:06:14.225Z,34.75
2023-04-16T12:09:27.045Z,32.55
2023-04-16T12:12:32.618Z,33.05
2023-04-16T12:15:45.856Z,30.35
2023-04-16T12:19:01.965Z,34.60
2023-04-16T12:22:03.520Z,31.48
2023-04-16T12:25:11.586Z,31.60
2023-04-16T12:28:13.714Z,33.88
2023-04-16T12:31:15.736Z,35.33
2023-04-16T12:34:18.182Z,30.48
2023-04-16T12:37:19.761Z,29.08
2023-04-16T12:40:21.300Z,28.17
2023-04-16T12:43:23.081Z,25.80
2023-04-16T12:46:24.653Z,26.73
2023-04-16T12:49:26.230Z,31.08
2023-04-16T12:52:28.000Z,26.80
2023-04-16T12:55:29.883Z,28.08
2023-04-16T12:58:31.666Z,31.48
2023-04-16T13:01:36.038Z,32.80
2023-04-16T13:04:37.826Z,33.95
2023-04-16T13:07:39.516Z,33.40
2023-04-16T13:10:41.297Z,32.00
2023-04-16T13:13:42.832Z,34.20
2023-04-16T13:16:44.439Z,31.73
2023-04-16T13:19:48.383Z,35.92
2023-04-16T13:22:53.923Z,34.65
2023-04-16T13:25:56.269Z,35.63
2023-04-16T13:28:57.896Z,36.42
2023-04-16T13:31:59.462Z,33.28
2023-04-16T13:35:01.051Z,34.75
2023-04-16T13:38:02.850Z,37.83
2023-04-16T13:41:05.104Z,35.88
2023-04-16T13:44:07.115Z,34.80
2023-04-16T13:47:08.769Z,36.30
2023-04-16T13:50:10.992Z,31.38
2023-04-16T13:53:12.618Z,34.35
2023-04-16T13:56:14.591Z,36.83
2023-04-16T13:59:16.632Z,31.55
2023-04-16T14:02:19.008Z,35.55
2023-04-16T14:05:20.744Z,35.20
2023-04-16T14:08:22.421Z,29.90
2023-04-16T14:11:24.125Z,29.95
2023-04-16T14:14:26.147Z,33.20
2023-04-16T14:17:27.751Z,32.00
2023-04-16T14:20:29.313Z,36.67
2023-04-16T14:23:31.668Z,29.80
2023-04-16T14:26:33.281Z,30.48
2023-04-16T14:29:36.268Z,30.52
2023-04-16T14:32:38.046Z,27.75
2023-04-16T14:35:39.812Z,35.58
2023-04-16T14:38:43.191Z,31.42
2023-04-16T14:41:44.768Z,28.33
2023-04-16T14:44:46.378Z,29.85
2023-04-16T14:47:48.192Z,26.83
2023-04-16T14:50:49.823Z,27.83
2023-04-16T14:53:51.495Z,27.23
2023-04-16T14:56:53.061Z,28.42
2023-04-16T14:59:54.653Z,26.98
2023-04-16T15:02:56.505Z,28.15
2023-04-16T15:05:58.456Z,26.90
2023-04-16T15:09:00.273Z,25.48
2023-04-16T15:12:01.863Z,24.73
2023-04-16T15:15:03.551Z,26.85
2023-04-16T15:18:05.877Z,29.38
2023-04-16T15:21:07.662Z,27.30
2023-04-16T15:24:09.594Z,24.50
2023-04-16T15:27:13.739Z,21.30
2023-04-16T15:30:15.789Z,20.95
2023-04-16T15:33:17.669Z,21.05
2023-04-16T15:36:19.257Z,22.13
2023-04-16T15:39:21.700Z,20.75
2023-04-16T15:42:23.794Z,20.42
2023-04-16T15:45:25.445Z,21.17
2023-04-16T15:48:27.135Z,19.25
2023-04-16T15:51:31.450Z,17.42
2023-04-16T15:54:33.130Z,17.42
2023-04-16T15:57:35.121Z,17.98
2023-04-16T16:00:36.743Z,16.88
2023-04-16T16:03:38.434Z,21.52
2023-04-16T16:06:40.294Z,19.27
2023-04-16T16:09:46.981Z,18.27
2023-04-16T16:12:48.806Z,16.50
2023-04-16T16:15:50.952Z,19.83
2023-04-16T16:18:52.516Z,19.13
2023-04-16T16:21:54.056Z,20.42
2023-04-16T16:24:57.455Z,25.55
2023-04-16T16:27:59.773Z,23.65
2023-04-16T16:31:01.992Z,21.05
2023-04-16T16:34:03.602Z,18.80
2023-04-16T16:37:05.622Z,21.80
2023-04-16T16:40:07.632Z,18.55
2023-04-16T16:43:09.308Z,19.95
2023-04-16T16:46:11.356Z,23.50
2023-04-16T16:49:13.717Z,21.50
2023-04-16T16:52:15.291Z,22.70
2023-04-16T16:55:18.771Z,22.55
2023-04-16T16:58:20.666Z,20.38
2023-04-16T17:01:22.310Z,25.83
2023-04-16T17:04:24.098Z,35.60
2023-04-16T17:07:25.793Z,28.20
2023-04-16T17:10:27.348Z,35.70
2023-04-16T17:13:30.070Z,39.92
2023-04-16T17:16:31.803Z,41.10
2023-04-16T17:19:33.455Z,40.50
2023-04-16T17:22:36.512Z,47.65
2023-04-16T17:25:38.430Z,52.45
2023-04-16T17:28:40.067Z,48.67
2023-04-16T17:31:42.390Z,50.42
2023-04-16T17:34:43.968Z,47.72
2023-04-16T17:37:45.614Z,49.08
2023-04-16T17:40:47.298Z,49.22
2023-04-16T17:43:51.870Z,50.55
2023-04-16T17:46:53.520Z,46.00
2023-04-16T17:49:55.377Z,48.45
2023-04-16T17:53:02.999Z,46.45
2023-04-16T17:56:04.889Z,58.45
2023-04-16T17:59:06.662Z,46.60
2023-04-16T18:02:08.340Z,48.42
2023-04-16T18:05:10.600Z,46.28
2023-04-16T18:08:12.182Z,55.35
2023-04-16T18:11:13.763Z,51.28
2023-04-16T18:14:19.725Z,49.38
2023-04-16T18:17:24.131Z,49.42
2023-04-16T18:20:28.907Z,49.60
2023-04-16T18:23:30.577Z,53.03
2023-04-16T18:26:35.713Z,57.20
2023-04-16T18:29:39.893Z,55.30
2023-04-16T18:32:56.126Z,53.67
2023-04-16T18:36:03.941Z,55.70
2023-04-16T18:39:07.366Z,64.82
2023-04-16T18:42:08.930Z,57.10
2023-04-16T18:45:13.000Z,50.97
2023-04-16T18:48:15.640Z,56.70
2023-04-16T18:51:17.249Z,64.40
2023-04-16T18:54:20.291Z,52.47
2023-04-16T18:57:21.833Z,65.70
2023-04-16T19:00:23.349Z,62.55
2023-04-16T19:03:27.004Z,61.80
2023-04-16T19:06:29.109Z,63.00
2023-04-16T19:09:30.868Z,51.85
2023-04-16T19:12:32.531Z,58.72
2023-04-16T19:15:34.972Z,52.88
2023-04-16T19:18:37.640Z,43.72
2023-04-16T19:21:39.214Z,48.00
2023-04-16T19:24:40.798Z,51.10
2023-04-16T19:27:42.417Z,42.47
2023-04-16T19:30:46.463Z,39.33
2023-04-16T19:33:48.045Z,46.08
2023-04-16T19:36:49.638Z,40.35
2023-04-16T19:39:51.268Z,41.88
2023-04-16T19:42:52.840Z,45.22
2023-04-16T19:45:54.756Z,42.13
2023-04-16T19:48:56.776Z,52.47
2023-04-16T19:51:58.298Z,41.70
2023-04-16T19:54:59.885Z,44.33
2023-04-16T19:58:05.978Z,34.47
2023-04-16T20:01:11.401Z,41.58
2023-04-16T20:04:13.024Z,34.88
2023-04-16T20:07:14.589Z,37.30
2023-04-16T20:10:16.274Z,30.80
2023-04-16T20:13:18.850Z,34.28
2023-04-16T20:16:23.361Z,35.53
2023-04-16T20:19:29.897Z,38.30
2023-04-16T20:22:31.481Z,34.15
2023-04-16T20:25:33.111Z,36.25
2023-04-16T20:28:35.219Z,38.25
2023-04-16T20:31:36.817Z,32.08
2023-04-16T20:34:38.337Z,42.90
2023-04-16T20:37:41.921Z,41.08
2023-04-16T20:40:44.970Z,41.70
2023-04-16T20:43:50.105Z,36.33
2023-04-16T20:46:55.361Z,44.42
2023-04-16T20:49:58.064Z,52.08
2023-04-16T20:52:59.643Z,43.15
2023-04-16T20:56:01.293Z,47.55
2023-04-16T20:59:08.183Z,50.45
2023-04-16T21:02:09.820Z,37.70
2023-04-16T21:05:14.472Z,45.58
2023-04-16T21:08:20.316Z,55.15
2023-04-16T21:11:21.974Z,53.92
2023-04-16T21:14:23.784Z,50.13
2023-04-16T21:17:25.387Z,43.28
2023-04-16T21:20:28.750Z,57.33
2023-04-16T21:23:31.475Z,51.63
2023-04-16T21:26:33.047Z,54.55
2023-04-16T21:29:34.618Z,53.53
2023-04-16T21:32:36.266Z,50.78
2023-04-16T21:35:37.832Z,53.08
2023-04-16T21:38:39.752Z,57.80
2023-04-16T21:41:41.302Z,58.30
2023-04-16T21:44:42.843Z,57.78
2023-04-16T21:47:44.474Z,57.75
2023-04-16T21:50:46.189Z,57.63
2023-04-16T21:53:47.768Z,56.00
2023-04-16T21:56:49.308Z,53.00
2023-04-16T21:59:50.876Z,64.82
2023-04-16T22:02:56.362Z,54.03
2023-04-16T22:06:00.589Z,60.72
2023-04-16T22:09:02.997Z,52.75
2023-04-16T22:12:14.524Z,62.58
2023-04-16T22:15:16.387Z,61.95
2023-04-16T22:18:18.488Z,72.13
2023-04-16T22:21:20.132Z,64.57
2023-04-16T22:24:24.482Z,66.40
2023-04-16T22:27:26.277Z,66.60
2023-04-16T22:30:27.864Z,68.38
2023-04-16T22:33:30.560Z,58.78
2023-04-16T22:36:32.144Z,75.68
2023-04-16T22:39:34.454Z,65.72
2023-04-16T22:42:36.063Z,66.15
2023-04-16T22:45:37.936Z,59.15
2023-04-16T22:48:39.542Z,68.03
2023-04-16T22:51:41.138Z,64.45
2023-04-16T22:54:42.852Z,62.08
2023-04-16T22:57:44.402Z,63.95
2023-04-16T23:00:47.489Z,61.58
2023-04-16T23:03:49.346Z,64.95
2023-04-16T23:06:51.480Z,66.40
2023-04-16T23:09:53.171Z,59.55
2023-04-16T23:12:54.856Z,64.90
2023-04-16T23:15:56.501Z,65.93
2023-04-16T23:18:58.181Z,64.18
2023-04-16T23:21:59.780Z,57.80
2023-04-16T23:25:01.553Z,63.35
2023-04-16T23:28:03.156Z,60.83
2023-04-16T23:31:07.289Z,64.22
2023-04-16T23:34:09.504Z,71.13
2023-04-16T23:37:11.200Z,64.38
2023-04-16T23:40:12.824Z,66.15
2023-04-16T23:43:14.426Z,61.25
2023-04-16T23:46:16.143Z,72.95
2023-04-16T23:49:17.714Z,69.45
2023-04-16T23:52:19.276Z,61.85
2023-04-16T23:55:20.998Z,66.72
2023-04-16T23:58:22.560Z,74.93
